Time;durP1;ratioP1;P1;durP2;ratioP2;P2;SDS_P1;SDS_P2;PMS_P1;PMS_P2;Temp;Humidity;BMP_temperature;BMP_pressure;BME280_temperature;BME280_humidity;BME280_pressure;Samples;Min_cycle;Max_cycle;Signal;HPM_P1;HPM_P2
2022/05/24 00:00:34;;;;;;;1.20;1.10;;;19.60;99.90;;;;;;5015434;28;20441;-71
2022/05/24 00:03:00;;;;;;;1.10;1.00;;;19.30;99.90;;;;;;5018544;28;20323;-71
2022/05/24 00:05:28;;;;;;;4.60;0.93;;;19.10;99.90;;;;;;5017483;28;20407;-73
2022/05/24 00:07:54;;;;;;;1.47;1.00;;;18.80;99.90;;;;;;5019746;28;20415;-73
2022/05/24 00:10:24;;;;;;;2.07;1.30;;;18.80;99.90;;;;;;5018457;28;20415;-72
2022/05/24 00:12:49;;;;;;;1.53;1.00;;;18.90;99.90;;;;;;5014010;28;20966;-72
2022/05/24 00:15:20;;;;;;;1.67;1.10;;;19.00;99.90;;;;;;5013997;28;20410;-73
2022/05/24 00:17:49;;;;;;;1.43;1.30;;;19.00;99.90;;;;;;5018749;28;20596;-73
2022/05/24 00:20:15;;;;;;;1.33;1.13;;;19.00;99.90;;;;;;5016518;28;20513;-73
2022/05/24 00:22:41;;;;;;;1.20;1.10;;;18.90;99.90;;;;;;5017371;28;20490;-73
2022/05/24 00:25:07;;;;;;;1.20;1.10;;;18.90;99.90;;;;;;5018287;28;20477;-73
2022/05/24 00:27:33;;;;;;;1.20;1.00;;;18.80;99.90;;;;;;5014405;28;20190;-72
2022/05/24 00:29:59;;;;;;;2.93;1.40;;;18.80;99.90;;;;;;5020044;28;20438;-73
2022/05/24 00:32:24;;;;;;;1.30;1.13;;;18.70;99.90;;;;;;5015429;28;20434;-73
2022/05/24 00:34:50;;;;;;;2.53;1.30;;;18.60;99.90;;;;;;5021233;28;20230;-73
2022/05/24 00:37:19;;;;;;;2.80;1.40;;;18.60;99.90;;;;;;5020833;28;20496;-73
2022/05/24 00:39:46;;;;;;;2.33;1.03;;;18.70;99.90;;;;;;5013065;28;20188;-73
2022/05/24 00:42:18;;;;;;;1.00;0.90;;;18.80;99.90;;;;;;5014261;28;20442;-71
2022/05/24 00:44:53;;;;;;;2.30;1.20;;;18.80;99.90;;;;;;5018667;28;20395;-72
2022/05/24 00:47:40;;;;;;;1.40;0.70;;;18.80;99.90;;;;;;5014826;28;20416;-73
2022/05/24 00:50:21;;;;;;;1.43;1.07;;;18.90;99.90;;;;;;5014860;28;20415;-72
2022/05/24 00:52:50;;;;;;;1.10;0.80;;;19.10;99.90;;;;;;5013760;28;20961;-73
2022/05/24 00:55:21;;;;;;;1.73;0.90;;;19.00;99.90;;;;;;5015216;28;20935;-72
2022/05/24 00:58:00;;;;;;;1.13;0.77;;;19.20;99.90;;;;;;5010121;28;20437;-72
2022/05/24 01:00:25;;;;;;;1.20;0.80;;;19.30;99.90;;;;;;5022433;28;20418;-72
2022/05/24 01:02:51;;;;;;;1.10;0.90;;;19.40;99.90;;;;;;5016616;28;20495;-70
2022/05/24 01:05:23;;;;;;;1.00;0.80;;;19.50;99.90;;;;;;5014609;28;20663;-73
2022/05/24 01:07:49;;;;;;;1.57;0.73;;;19.60;99.90;;;;;;5018876;28;20226;-72
2022/05/24 01:10:31;;;;;;;0.90;0.70;;;19.40;99.90;;;;;;5014861;28;20414;-75
2022/05/24 01:13:07;;;;;;;1.73;1.10;;;19.30;99.90;;;;;;5015490;28;20978;-73
2022/05/24 01:15:34;;;;;;;1.00;0.80;;;19.40;99.90;;;;;;5014004;28;20410;-74
2022/05/24 01:18:01;;;;;;;0.80;0.80;;;19.40;99.90;;;;;;5016597;28;20430;-74
2022/05/24 01:20:27;;;;;;;1.20;0.67;;;19.40;99.90;;;;;;5015547;28;20506;-73
2022/05/24 01:23:13;;;;;;;0.80;0.70;;;19.40;99.90;;;;;;5043377;22;20613;-72
2022/05/24 01:25:51;;;;;;;1.70;1.40;;;19.30;99.90;;;;;;5010826;28;20415;-73
2022/05/24 01:28:31;;;;;;;1.63;0.80;;;19.30;99.90;;;;;;5018989;28;20405;-73
2022/05/24 01:30:57;;;;;;;1.70;0.80;;;19.30;99.90;;;;;;5013907;28;20411;-73
2022/05/24 01:36:11;;;;;;;1.20;0.97;;;19.30;99.90;;;;;;5007524;28;20393;-74
2022/05/24 01:38:45;;;;;;;2.00;1.03;;;19.30;99.90;;;;;;5004911;28;20417;-72
2022/05/24 01:41:16;;;;;;;1.00;0.60;;;19.30;99.90;;;;;;5005124;28;20403;-73
2022/05/24 01:43:43;;;;;;;0.90;0.70;;;19.20;99.90;;;;;;5005070;28;20430;-72
2022/05/24 01:46:11;;;;;;;0.90;0.80;;;19.20;99.90;;;;;;5003134;28;20569;-70
2022/05/24 01:48:46;;;;;;;1.40;1.07;;;19.30;99.90;;;;;;5005044;28;20502;-72
2022/05/24 01:51:15;;;;;;;1.50;0.90;;;19.10;99.90;;;;;;5005106;28;20410;-74
2022/05/24 01:53:44;;;;;;;1.80;1.27;;;19.10;99.90;;;;;;5004375;28;20477;-72
2022/05/24 01:56:22;;;;;;;0.90;0.80;;;19.10;99.90;;;;;;5004975;28;20411;-73
2022/05/24 01:58:53;;;;;;;0.80;0.70;;;19.00;99.90;;;;;;5004818;28;20410;-72
2022/05/24 02:01:48;;;;;;;1.00;0.90;;;18.90;99.90;;;;;;5005189;28;20426;-72
2022/05/24 02:04:15;;;;;;;0.93;0.80;;;18.90;99.90;;;;;;5005064;28;20427;-72
2022/05/24 02:06:41;;;;;;;0.90;0.80;;;18.80;99.90;;;;;;5005450;28;20509;-73
2022/05/24 02:09:09;;;;;;;1.30;0.80;;;18.70;99.90;;;;;;5005394;28;20506;-72
2022/05/24 02:11:35;;;;;;;1.03;0.93;;;18.70;99.90;;;;;;5006737;28;20211;-73
2022/05/24 02:14:07;;;;;;;2.50;1.03;;;18.70;99.90;;;;;;5006241;28;20494;-73
2022/05/24 02:16:38;;;;;;;1.00;0.80;;;18.60;99.90;;;;;;5006380;28;20234;-73
2022/05/24 02:19:05;;;;;;;1.10;1.00;;;18.30;99.90;;;;;;5006556;28;20781;-74
2022/05/24 02:21:31;;;;;;;1.40;1.00;;;18.30;99.90;;;;;;5005647;28;20453;-74
2022/05/24 02:23:57;;;;;;;1.17;1.07;;;18.30;99.90;;;;;;5006279;28;20600;-73
2022/05/24 02:26:24;;;;;;;0.90;0.77;;;18.40;99.90;;;;;;5006605;28;20674;-72
2022/05/24 02:28:51;;;;;;;1.60;1.00;;;18.40;99.90;;;;;;5006945;28;20683;-72
2022/05/24 02:31:19;;;;;;;0.80;0.80;;;18.30;99.90;;;;;;5005345;28;20427;-70
2022/05/24 02:33:46;;;;;;;2.20;1.20;;;18.10;99.90;;;;;;5006715;28;21633;-72
2022/05/24 02:36:13;;;;;;;1.67;1.13;;;18.00;99.90;;;;;;5007400;28;20780;-72
2022/05/24 02:38:39;;;;;;;1.63;0.90;;;18.00;99.90;;;;;;5006081;28;20406;-73
2022/05/24 02:43:49;;;;;;;2.67;0.90;;;17.90;99.90;;;;;;5005902;28;20430;-72
2022/05/24 02:46:18;;;;;;;1.60;1.10;;;17.80;99.90;;;;;;5006230;28;20414;-73
2022/05/24 02:48:44;;;;;;;3.40;1.00;;;17.70;99.90;;;;;;5005855;28;20190;-71
2022/05/24 02:51:12;;;;;;;1.40;1.00;;;17.40;99.90;;;;;;5005721;28;20422;-72
2022/05/24 02:53:39;;;;;;;1.00;0.90;;;17.50;99.90;;;;;;5005010;28;20699;-72
2022/05/24 02:56:05;;;;;;;1.20;0.90;;;17.60;99.90;;;;;;5006236;28;20475;-72
2022/05/24 02:58:32;;;;;;;1.10;1.00;;;17.70;99.90;;;;;;5007522;28;20412;-73
2022/05/24 03:00:58;;;;;;;3.00;1.13;;;17.60;99.90;;;;;;5009921;28;20459;-72
2022/05/24 03:03:23;;;;;;;1.03;0.80;;;17.70;99.90;;;;;;5008346;28;20815;-72
2022/05/24 03:05:49;;;;;;;2.40;1.13;;;17.70;99.90;;;;;;5009878;28;20649;-71
2022/05/24 03:10:59;;;;;;;3.20;1.47;;;17.90;99.90;;;;;;5009414;28;20197;-72
2022/05/24 03:16:14;;;;;;;2.50;0.80;;;17.90;99.90;;;;;;5008968;28;20178;-71
2022/05/24 03:18:40;;;;;;;4.10;1.10;;;17.90;99.90;;;;;;5009399;28;21041;-71
2022/05/24 03:21:06;;;;;;;1.20;1.00;;;17.80;99.90;;;;;;5009114;28;20481;-72
2022/05/24 03:23:33;;;;;;;1.70;1.03;;;17.80;99.90;;;;;;5009516;28;20573;-72
2022/05/24 03:25:59;;;;;;;1.37;1.00;;;17.70;99.90;;;;;;5008205;28;20441;-71
2022/05/24 03:28:25;;;;;;;1.43;1.33;;;17.70;99.90;;;;;;5008556;28;20469;-73
2022/05/24 03:30:51;;;;;;;1.00;0.90;;;17.70;99.90;;;;;;5007579;28;20423;-71
2022/05/24 03:33:17;;;;;;;1.37;1.10;;;17.70;99.90;;;;;;5009713;28;20455;-73
2022/05/24 03:35:43;;;;;;;1.30;1.20;;;17.80;99.90;;;;;;5009328;28;20226;-71
2022/05/24 03:38:09;;;;;;;2.00;1.20;;;17.70;99.90;;;;;;5007739;28;20426;-73
2022/05/24 03:40:35;;;;;;;2.60;1.00;;;17.80;99.90;;;;;;5009417;28;20258;-72
2022/05/24 03:43:01;;;;;;;1.20;1.10;;;17.70;99.90;;;;;;5008691;28;20450;-70
2022/05/24 03:45:28;;;;;;;1.37;1.10;;;17.80;99.90;;;;;;5008321;28;20467;-73
2022/05/24 03:47:54;;;;;;;2.60;1.27;;;17.90;99.90;;;;;;5006396;28;20763;-72
2022/05/24 03:50:21;;;;;;;1.03;0.80;;;17.90;99.90;;;;;;5007322;28;20450;-73
2022/05/24 03:52:46;;;;;;;1.50;1.13;;;17.90;99.90;;;;;;5007043;28;20234;-73
2022/05/24 03:55:12;;;;;;;1.50;1.20;;;17.90;99.90;;;;;;5008903;28;20517;-70
2022/05/24 04:00:23;;;;;;;1.30;1.20;;;18.00;99.90;;;;;;5008202;28;20397;-71
2022/05/24 04:02:49;;;;;;;1.20;1.03;;;17.90;99.90;;;;;;5007913;28;20434;-71
2022/05/24 04:05:15;;;;;;;1.83;1.17;;;18.00;99.90;;;;;;5007330;28;20411;-72
2022/05/24 04:07:41;;;;;;;1.70;1.50;;;17.90;99.90;;;;;;5006937;28;20668;-73
2022/05/24 04:10:09;;;;;;;2.23;1.50;;;17.90;99.90;;;;;;5007471;28;20221;-72
2022/05/24 04:12:35;;;;;;;1.93;1.50;;;18.00;99.90;;;;;;5008748;28;20439;-73
2022/05/24 04:15:01;;;;;;;1.60;1.00;;;18.10;99.90;;;;;;5007921;28;20454;-73
2022/05/24 04:17:26;;;;;;;1.33;0.90;;;18.10;99.90;;;;;;5005024;28;20688;-72
2022/05/24 04:19:52;;;;;;;3.67;1.13;;;18.10;99.90;;;;;;5007978;28;20184;-71
2022/05/24 04:22:18;;;;;;;2.60;1.57;;;18.20;99.90;;;;;;5008251;28;20220;-73
2022/05/24 04:24:43;;;;;;;1.93;1.03;;;18.30;99.90;;;;;;5008107;28;21011;-72
2022/05/24 04:27:09;;;;;;;2.17;1.07;;;18.20;99.90;;;;;;5008526;28;20213;-73
2022/05/24 04:29:39;;;;;;;1.00;0.90;;;18.20;99.90;;;;;;5007206;28;20215;-71
2022/05/24 04:32:06;;;;;;;1.53;0.80;;;18.10;99.90;;;;;;5007944;28;20424;-71
2022/05/24 04:34:32;;;;;;;1.33;1.10;;;18.20;99.90;;;;;;5006838;28;20466;-74
2022/05/24 04:36:57;;;;;;;0.80;0.80;;;18.30;99.90;;;;;;5007836;28;20419;-73
2022/05/24 04:39:23;;;;;;;1.00;0.90;;;18.30;99.90;;;;;;5008036;28;20186;-73
2022/05/24 04:44:33;;;;;;;3.00;1.80;;;18.50;99.90;;;;;;5006771;28;20194;-73
2022/05/24 04:47:08;;;;;;;3.53;1.10;;;18.40;99.90;;;;;;5007678;28;20908;-73
2022/05/24 04:49:35;;;;;;;3.30;1.23;;;18.30;99.90;;;;;;5007594;28;20213;-73
2022/05/24 04:52:01;;;;;;;1.20;1.00;;;18.20;99.90;;;;;;5007665;28;20406;-74
2022/05/24 04:54:27;;;;;;;5.50;1.70;;;18.30;99.90;;;;;;5006896;28;20616;-72
2022/05/24 04:56:53;;;;;;;1.10;1.00;;;18.40;99.90;;;;;;5006956;28;20413;-74
2022/05/24 04:59:18;;;;;;;2.37;1.10;;;18.50;99.90;;;;;;5007152;28;20815;-73
2022/05/24 05:01:44;;;;;;;1.87;1.10;;;18.30;99.90;;;;;;5006485;28;20176;-72
2022/05/24 05:04:10;;;;;;;3.10;1.37;;;18.40;99.90;;;;;;5005022;28;20207;-73
2022/05/24 05:06:36;;;;;;;1.40;1.00;;;18.40;99.90;;;;;;5006493;28;20492;-71
2022/05/24 05:09:03;;;;;;;3.50;1.20;;;18.40;99.90;;;;;;5006382;28;20793;-73
2022/05/24 05:11:28;;;;;;;4.70;1.20;;;18.50;99.90;;;;;;5006249;28;20791;-71
2022/05/24 05:13:54;;;;;;;2.07;1.17;;;18.70;99.90;;;;;;5006340;28;20995;-73
2022/05/24 05:16:19;;;;;;;1.30;1.20;;;18.80;99.90;;;;;;5006185;28;20180;-72
2022/05/24 05:18:45;;;;;;;3.40;1.83;;;19.00;99.90;;;;;;5006447;28;20287;-73
2022/05/24 05:21:11;;;;;;;2.03;1.23;;;18.90;99.90;;;;;;5005831;28;20633;-72
2022/05/24 05:23:37;;;;;;;3.97;1.83;;;19.00;99.90;;;;;;5005976;28;20471;-73
2022/05/24 05:26:03;;;;;;;2.87;1.30;;;19.00;99.90;;;;;;5006020;28;20183;-70
2022/05/24 05:28:28;;;;;;;3.17;1.70;;;19.00;99.90;;;;;;5004650;28;20506;-72
2022/05/24 05:33:38;;;;;;;4.70;1.20;;;18.90;99.90;;;;;;5006039;28;20787;-71
2022/05/24 05:36:04;;;;;;;3.10;1.00;;;19.00;99.90;;;;;;5004249;28;20513;-72
2022/05/24 05:38:31;;;;;;;1.33;1.20;;;19.10;99.90;;;;;;5005046;28;20191;-73
2022/05/24 05:40:58;;;;;;;3.50;1.27;;;19.20;99.90;;;;;;5005837;28;20164;-73
2022/05/24 05:43:24;;;;;;;8.00;1.73;;;19.40;99.90;;;;;;5005827;28;20959;-73
2022/05/24 05:45:54;;;;;;;2.53;1.10;;;19.50;99.90;;;;;;5006252;28;20919;-72
2022/05/24 05:48:21;;;;;;;2.00;1.33;;;19.80;99.90;;;;;;5005635;28;20411;-73
2022/05/24 05:50:49;;;;;;;1.37;1.20;;;19.80;99.90;;;;;;5005525;28;20429;-75
2022/05/24 05:53:17;;;;;;;2.57;1.77;;;19.90;99.90;;;;;;5005451;28;20509;-72
2022/05/24 05:55:42;;;;;;;2.47;1.63;;;19.90;99.90;;;;;;5004407;28;20415;-71
2022/05/24 05:58:08;;;;;;;1.50;1.27;;;19.70;99.90;;;;;;5005364;28;20434;-72
2022/05/24 06:00:35;;;;;;;1.47;1.30;;;19.70;99.90;;;;;;5005174;28;20175;-72
2022/05/24 06:03:01;;;;;;;2.10;1.10;;;19.60;99.90;;;;;;5005140;28;20438;-71
2022/05/24 06:05:27;;;;;;;1.90;1.57;;;19.30;99.90;;;;;;5005289;28;20415;-73
2022/05/24 06:07:54;;;;;;;1.83;1.20;;;19.20;99.90;;;;;;5004663;28;20211;-72
2022/05/24 06:10:20;;;;;;;2.23;1.40;;;19.30;99.90;;;;;;5004968;28;20176;-73
2022/05/24 06:12:47;;;;;;;2.23;1.50;;;19.20;99.90;;;;;;5005300;28;20434;-74
2022/05/24 06:15:12;;;;;;;3.10;1.53;;;19.40;99.90;;;;;;5005211;28;20291;-72
2022/05/24 06:17:49;;;;;;;2.07;1.60;;;19.50;99.90;;;;;;5006332;28;20505;-74
2022/05/24 06:20:22;;;;;;;3.17;1.30;;;19.70;99.90;;;;;;5005837;28;20221;-74
2022/05/24 06:22:49;;;;;;;1.57;1.03;;;20.00;99.90;;;;;;5005310;28;20489;-72
2022/05/24 06:25:16;;;;;;;3.20;1.17;;;19.90;99.90;;;;;;5005485;28;20411;-74
2022/05/24 06:27:41;;;;;;;2.73;1.13;;;19.80;99.90;;;;;;5005110;28;21028;-73
2022/05/24 06:30:07;;;;;;;2.23;1.63;;;20.10;99.90;;;;;;5003805;28;20467;-74
2022/05/24 06:32:33;;;;;;;4.03;1.70;;;20.40;99.90;;;;;;5004816;28;20239;-73
2022/05/24 06:34:59;;;;;;;2.70;1.60;;;20.40;99.90;;;;;;5009348;28;20497;-74
2022/05/24 06:37:24;;;;;;;4.63;1.40;;;20.50;99.90;;;;;;5007819;28;20175;-74
2022/05/24 06:39:50;;;;;;;1.80;1.40;;;20.70;99.90;;;;;;5008987;28;20573;-72
2022/05/24 06:42:16;;;;;;;3.43;1.27;;;20.50;99.90;;;;;;5008817;28;20287;-72
2022/05/24 06:44:42;;;;;;;3.30;1.77;;;20.40;99.90;;;;;;5008803;28;20442;-74
2022/05/24 06:47:08;;;;;;;3.57;1.60;;;20.60;99.90;;;;;;5007824;28;20454;-75
2022/05/24 06:49:36;;;;;;;1.70;1.60;;;20.70;99.90;;;;;;5008580;28;20549;-75
2022/05/24 06:52:02;;;;;;;2.30;1.50;;;20.70;99.90;;;;;;5008585;28;20446;-73
2022/05/24 06:54:28;;;;;;;4.40;1.60;;;20.60;99.90;;;;;;5008213;28;20493;-75
2022/05/24 06:56:53;;;;;;;3.90;1.67;;;20.40;99.90;;;;;;5008987;28;20443;-74
2022/05/24 07:04:47;;;;;;;1.63;1.37;;;20.50;99.90;;;;;;5008687;28;20522;-73
2022/05/24 07:07:13;;;;;;;2.23;1.30;;;20.40;99.90;;;;;;5008768;28;20506;-74
2022/05/24 07:09:40;;;;;;;2.73;1.47;;;20.00;99.90;;;;;;5008372;28;20180;-73
2022/05/24 07:12:06;;;;;;;3.93;1.40;;;19.80;99.90;;;;;;5007549;28;20176;-70
2022/05/24 07:14:35;;;;;;;2.87;1.77;;;19.10;99.90;;;;;;5008777;28;20802;-72
2022/05/24 07:17:01;;;;;;;4.13;1.00;;;17.40;99.90;;;;;;5008129;28;21073;-72
2022/05/24 07:19:28;;;;;;;2.43;1.10;;;16.10;99.90;;;;;;5008079;28;20408;-71
2022/05/24 07:21:53;;;;;;;2.40;1.00;;;15.50;99.90;;;;;;5008405;28;20564;-72
2022/05/24 07:24:19;;;;;;;1.30;0.77;;;15.40;99.90;;;;;;5008857;28;20450;-72
2022/05/24 07:26:44;;;;;;;2.03;0.90;;;15.20;99.90;;;;;;5008644;28;20278;-72
2022/05/24 07:29:10;;;;;;;2.10;1.47;;;15.00;99.90;;;;;;5008029;28;20186;-73
2022/05/24 07:31:38;;;;;;;1.67;0.80;;;15.10;99.90;;;;;;5007755;28;20806;-73
2022/05/24 07:34:03;;;;;;;3.33;1.27;;;15.30;99.90;;;;;;5007868;28;20241;-73
2022/05/24 07:36:29;;;;;;;2.20;0.90;;;15.30;99.90;;;;;;5006065;28;20422;-72
2022/05/24 07:38:55;;;;;;;1.27;0.80;;;15.50;99.90;;;;;;5007438;28;20250;-73
2022/05/24 07:46:49;;;;;;;1.90;0.87;;;15.70;99.90;;;;;;5007070;28;20972;-74
2022/05/24 07:49:15;;;;;;;2.50;1.27;;;15.90;99.90;;;;;;5007909;28;20536;-74
2022/05/24 07:51:41;;;;;;;6.43;0.97;;;16.00;99.90;;;;;;5007968;28;20188;-73
2022/05/24 07:54:07;;;;;;;1.77;0.90;;;16.10;99.90;;;;;;5007416;28;20206;-73
2022/05/24 07:56:33;;;;;;;3.33;1.40;;;16.30;99.90;;;;;;5008069;28;20428;-73
2022/05/24 07:58:58;;;;;;;2.50;1.00;;;16.70;99.90;;;;;;5007697;28;20704;-72
2022/05/24 08:01:24;;;;;;;1.20;1.00;;;16.90;99.90;;;;;;5007501;28;20179;-74
2022/05/24 08:03:50;;;;;;;1.30;0.90;;;17.00;99.90;;;;;;5006202;28;20218;-72
2022/05/24 08:06:17;;;;;;;2.30;1.10;;;17.00;99.90;;;;;;5007583;28;20239;-73
2022/05/24 08:08:43;;;;;;;2.70;1.00;;;16.90;99.90;;;;;;5007183;28;20797;-73
2022/05/24 08:11:09;;;;;;;1.27;0.87;;;17.10;99.90;;;;;;5007773;28;20496;-73
2022/05/24 08:13:35;;;;;;;1.10;0.70;;;17.50;99.90;;;;;;5008069;28;20212;-73
2022/05/24 08:16:01;;;;;;;2.00;1.27;;;17.80;99.90;;;;;;5007769;28;20278;-73
2022/05/24 08:18:28;;;;;;;2.20;1.10;;;18.00;99.90;;;;;;5008252;28;20496;-74
2022/05/24 08:20:54;;;;;;;6.43;1.57;;;18.20;99.90;;;;;;5007357;28;20422;-73
2022/05/24 08:23:22;;;;;;;2.40;0.93;;;18.70;99.90;;;;;;5007006;28;20483;-72
2022/05/24 08:25:48;;;;;;;1.20;0.80;;;18.60;99.90;;;;;;5007738;28;20791;-73
2022/05/24 08:28:13;;;;;;;1.63;0.87;;;18.30;99.90;;;;;;5007140;28;20415;-74
2022/05/24 08:30:40;;;;;;;1.20;0.80;;;18.50;99.90;;;;;;5007440;28;20411;-74
2022/05/24 08:33:06;;;;;;;1.00;0.67;;;18.70;99.90;;;;;;5006541;28;20199;-74
2022/05/24 08:35:35;;;;;;;1.63;0.60;;;18.70;99.90;;;;;;5006516;28;20466;-71
2022/05/24 08:38:03;;;;;;;4.10;0.87;;;18.70;99.90;;;;;;5006360;28;20418;-72
2022/05/24 08:40:29;;;;;;;0.80;0.70;;;18.70;99.90;;;;;;5006485;28;20418;-73
2022/05/24 08:43:10;;;;;;;2.53;1.30;;;18.30;99.90;;;;;;5007644;28;20484;-73
2022/05/24 08:48:40;;;;;;;1.07;0.60;;;18.60;99.90;;;;;;5006972;28;20430;-72
2022/05/24 08:51:12;;;;;;;1.53;0.70;;;18.80;99.90;;;;;;5007109;28;20497;-74
2022/05/24 08:53:47;;;;;;;0.70;0.60;;;19.10;99.90;;;;;;5006132;28;20564;-72
2022/05/24 08:56:23;;;;;;;1.57;0.90;;;19.00;99.90;;;;;;5006390;28;20809;-73
2022/05/24 08:58:55;;;;;;;1.63;0.70;;;18.80;99.90;;;;;;5006709;28;20411;-72
2022/05/24 09:01:27;;;;;;;1.73;0.90;;;18.70;99.90;;;;;;5005347;28;20423;-74
2022/05/24 09:03:52;;;;;;;1.70;0.80;;;18.70;99.90;;;;;;5006482;28;20486;-73
2022/05/24 09:06:40;;;;;;;1.73;0.63;;;19.00;99.90;;;;;;5006702;28;20450;-71
2022/05/24 09:09:30;;;;;;;1.07;0.60;;;19.00;99.90;;;;;;5006326;28;20261;-73
2022/05/24 09:12:18;;;;;;;1.17;0.70;;;18.90;99.90;;;;;;5006340;28;20419;-73
2022/05/24 09:15:26;;;;;;;1.70;0.60;;;19.00;99.90;;;;;;5006670;28;20872;-73
2022/05/24 09:18:05;;;;;;;1.83;0.67;;;19.20;99.90;;;;;;5005190;28;20457;-71
2022/05/24 09:20:40;;;;;;;2.97;0.80;;;19.50;99.90;;;;;;5006415;28;20415;-72
2022/05/24 09:23:11;;;;;;;1.10;0.60;;;19.80;99.90;;;;;;5006054;28;20462;-73
2022/05/24 09:25:50;;;;;;;4.60;1.10;;;20.00;99.90;;;;;;5006381;28;20461;-72
2022/05/24 09:28:16;;;;;;;0.70;0.50;;;19.90;99.90;;;;;;5006310;28;20415;-73
2022/05/24 09:30:42;;;;;;;1.63;0.70;;;19.50;99.90;;;;;;5004202;28;20429;-72
2022/05/24 09:33:40;;;;;;;1.83;0.70;;;19.60;99.90;;;;;;5005671;28;20598;-73
2022/05/24 09:36:06;;;;;;;1.27;0.90;;;19.30;99.90;;;;;;4994104;28;20419;-74
2022/05/24 09:38:39;;;;;;;0.93;0.60;;;19.20;99.90;;;;;;5005653;28;20768;-72
2022/05/24 09:41:16;;;;;;;1.57;0.70;;;19.10;99.90;;;;;;5006167;28;20785;-70
2022/05/24 09:43:41;;;;;;;2.50;0.67;;;19.00;99.90;;;;;;5005479;28;20487;-71
2022/05/24 09:46:12;;;;;;;0.80;0.57;;;18.90;99.90;;;;;;5005696;28;20459;-73
2022/05/24 09:48:53;;;;;;;1.20;0.70;;;18.90;99.90;;;;;;5005084;28;20164;-73
2022/05/24 09:51:30;;;;;;;0.90;0.60;;;19.20;99.90;;;;;;5005241;28;20856;-75
2022/05/24 09:53:55;;;;;;;2.40;1.07;;;19.40;99.90;;;;;;5005628;28;20454;-73
2022/05/24 09:56:35;;;;;;;1.10;0.73;;;19.20;99.90;;;;;;5005561;28;20437;-73
2022/05/24 09:59:07;;;;;;;1.00;0.73;;;19.20;99.90;;;;;;5003953;28;20203;-74
2022/05/24 10:01:35;;;;;;;3.53;0.87;;;19.20;99.90;;;;;;5005317;28;20465;-71
2022/05/24 10:04:17;;;;;;;1.13;0.70;;;19.10;99.90;;;;;;5005343;28;20481;-72
2022/05/24 10:07:13;;;;;;;1.30;0.80;;;19.00;99.90;;;;;;5005415;28;20934;-72
2022/05/24 10:10:00;;;;;;;1.07;0.70;;;19.10;99.90;;;;;;5004663;28;20426;-74
2022/05/24 10:12:38;;;;;;;0.90;0.60;;;19.20;99.90;;;;;;5005508;28;20435;-72
2022/05/24 10:15:06;;;;;;;0.90;0.50;;;19.50;99.90;;;;;;5005234;28;20453;-71
2022/05/24 10:17:57;;;;;;;1.00;0.60;;;19.80;99.90;;;;;;5005189;28;20890;-73
2022/05/24 10:20:22;;;;;;;1.03;0.80;;;19.80;99.90;;;;;;5005240;28;20410;-76
2022/05/24 10:23:08;;;;;;;1.93;0.70;;;19.70;99.90;;;;;;5005715;28;20846;-74
2022/05/24 10:25:37;;;;;;;0.93;0.63;;;20.00;99.90;;;;;;5005041;28;20171;-73
2022/05/24 10:28:27;;;;;;;0.97;0.77;;;20.30;99.90;;;;;;5005182;28;20407;-73
2022/05/24 10:31:17;;;;;;;2.87;0.97;;;20.50;98.90;;;;;;5004491;28;20403;-74
2022/05/24 10:40:31;;;;;;;1.40;0.70;;;20.60;98.70;;;;;;5004921;28;20414;-75
2022/05/24 10:43:25;;;;;;;3.40;1.00;;;21.00;96.30;;;;;;5005096;28;20477;-74
2022/05/24 10:46:00;;;;;;;3.63;0.80;;;20.90;96.70;;;;;;4997340;28;20488;-72
2022/05/24 10:48:38;;;;;;;1.20;0.60;;;20.80;96.90;;;;;;5004953;28;20806;-74
2022/05/24 10:51:20;;;;;;;1.53;1.13;;;20.70;97.00;;;;;;5005769;28;20402;-74
2022/05/24 10:53:56;;;;;;;1.43;1.03;;;20.50;96.50;;;;;;5005143;28;20464;-74
2022/05/24 10:56:51;;;;;;;1.30;0.70;;;20.10;97.30;;;;;;5005724;28;20398;-73
2022/05/24 10:59:38;;;;;;;1.13;0.83;;;20.20;97.40;;;;;;5004128;28;20419;-72
2022/05/24 11:02:23;;;;;;;1.40;0.90;;;20.10;97.00;;;;;;5005247;28;20419;-72
2022/05/24 11:05:05;;;;;;;2.37;1.00;;;20.00;98.20;;;;;;5005386;28;20991;-74
2022/05/24 11:07:33;;;;;;;1.37;1.00;;;20.40;97.40;;;;;;5005943;28;20809;-74
2022/05/24 11:10:33;;;;;;;1.10;0.80;;;20.40;97.10;;;;;;5005519;28;20411;-74
2022/05/24 11:13:08;;;;;;;1.23;0.70;;;20.50;97.50;;;;;;4991197;28;20538;-74
2022/05/24 11:15:41;;;;;;;3.33;0.87;;;20.90;96.80;;;;;;5004406;28;20468;-71
2022/05/24 11:18:18;;;;;;;1.77;1.27;;;21.20;96.90;;;;;;5004078;28;20407;-74
2022/05/24 11:20:54;;;;;;;1.50;0.73;;;21.60;96.20;;;;;;5007989;28;20434;-74
2022/05/24 11:23:49;;;;;;;1.53;0.70;;;21.90;95.50;;;;;;5008478;28;20454;-76
2022/05/24 11:26:24;;;;;;;1.10;0.63;;;21.90;95.00;;;;;;5008128;28;20924;-74
2022/05/24 11:28:56;;;;;;;3.20;0.90;;;22.50;94.20;;;;;;5008055;28;20413;-74
2022/05/24 11:31:41;;;;;;;1.67;0.60;;;22.80;93.90;;;;;;5007574;28;21048;-72
2022/05/24 11:34:18;;;;;;;1.60;0.90;;;22.50;94.40;;;;;;5007916;28;20504;-72
2022/05/24 11:36:48;;;;;;;1.40;0.67;;;23.40;94.50;;;;;;5008710;28;20875;-75
2022/05/24 11:39:22;;;;;;;1.40;0.97;;;24.60;91.20;;;;;;5007898;28;20473;-75
2022/05/24 11:41:49;;;;;;;1.00;0.70;;;25.70;90.10;;;;;;5007833;28;20411;-74
2022/05/24 11:44:34;;;;;;;1.00;0.80;;;25.30;87.60;;;;;;5008030;28;20458;-74
2022/05/24 11:47:00;;;;;;;0.90;0.70;;;24.00;89.60;;;;;;5008703;28;20477;-74
2022/05/24 11:49:27;;;;;;;1.03;0.70;;;22.60;91.70;;;;;;5006905;28;20419;-74
2022/05/24 11:51:54;;;;;;;1.23;1.00;;;21.80;92.70;;;;;;5008541;28;20418;-72
2022/05/24 11:54:22;;;;;;;1.37;1.10;;;21.70;93.10;;;;;;5006224;28;21021;-73
2022/05/24 11:57:14;;;;;;;2.77;1.20;;;21.60;93.90;;;;;;5007950;28;20425;-72
2022/05/24 11:59:40;;;;;;;2.33;1.20;;;21.30;94.10;;;;;;5001122;28;20422;-72
2022/05/24 12:02:29;;;;;;;5.33;1.20;;;21.20;94.40;;;;;;5007000;28;21321;-72
2022/05/24 12:08:03;;;;;;;2.60;0.97;;;21.80;94.50;;;;;;5007918;28;20603;-73
2022/05/24 12:10:51;;;;;;;1.53;0.70;;;21.80;94.40;;;;;;5007973;28;20407;-73
2022/05/24 12:13:28;;;;;;;1.50;1.03;;;21.60;94.30;;;;;;5006518;28;20442;-73
2022/05/24 12:15:56;;;;;;;1.27;0.83;;;21.50;94.60;;;;;;5007972;28;20407;-70
2022/05/24 12:18:35;;;;;;;3.53;0.90;;;21.40;94.20;;;;;;5006917;28;20476;-73
2022/05/24 12:21:01;;;;;;;2.67;1.20;;;21.50;93.80;;;;;;5006568;28;20464;-73
2022/05/24 12:23:30;;;;;;;1.10;0.70;;;21.50;94.70;;;;;;5005344;28;20987;-72
2022/05/24 12:26:03;;;;;;;1.57;0.77;;;22.40;93.70;;;;;;5004679;28;20176;-73
2022/05/24 12:28:45;;;;;;;3.23;0.83;;;22.90;92.90;;;;;;5006608;28;20501;-74
2022/05/24 12:31:13;;;;;;;1.00;0.80;;;22.50;92.60;;;;;;5005417;28;20407;-73
2022/05/24 12:33:52;;;;;;;1.57;0.87;;;22.30;92.70;;;;;;5004604;28;20463;-74
2022/05/24 12:36:39;;;;;;;1.73;0.80;;;22.10;93.40;;;;;;5006905;28;20470;-73
2022/05/24 12:39:07;;;;;;;1.03;0.60;;;22.30;92.30;;;;;;5006119;28;20775;-73
2022/05/24 12:41:46;;;;;;;1.47;0.87;;;23.90;90.90;;;;;;5006032;28;20511;-73
2022/05/24 12:44:23;;;;;;;1.10;0.80;;;26.60;87.10;;;;;;5006075;28;21046;-72
2022/05/24 12:46:53;;;;;;;1.10;0.53;;;27.20;78.10;;;;;;5006246;28;20442;-73
2022/05/24 12:49:21;;;;;;;1.70;0.70;;;25.80;78.50;;;;;;5006598;28;20598;-73
2022/05/24 12:51:47;;;;;;;1.50;0.90;;;25.50;84.00;;;;;;5006937;28;21613;-74
2022/05/24 12:54:18;;;;;;;4.00;0.77;;;26.70;81.70;;;;;;5006336;28;20458;-73
2022/05/24 12:56:58;;;;;;;2.50;1.10;;;29.20;71.90;;;;;;5007640;28;20176;-72
2022/05/24 12:59:37;;;;;;;0.90;0.70;;;31.10;65.10;;;;;;5006368;28;20415;-76
2022/05/24 13:02:15;;;;;;;1.53;0.80;;;30.50;62.70;;;;;;5006912;28;20407;-74
2022/05/24 13:04:40;;;;;;;2.03;0.90;;;29.80;64.90;;;;;;5007142;28;20457;-74
2022/05/24 13:07:38;;;;;;;1.03;0.70;;;28.30;62.30;;;;;;5007042;28;20825;-75
2022/05/24 13:10:21;;;;;;;1.10;0.60;;;26.80;67.10;;;;;;4994786;28;20207;-73
2022/05/24 13:12:51;;;;;;;1.00;0.70;;;25.90;70.70;;;;;;5006588;28;20525;-73
2022/05/24 13:15:20;;;;;;;3.23;1.10;;;25.40;68.90;;;;;;5006103;28;20482;-75
2022/05/24 13:17:51;;;;;;;4.13;1.00;;;24.20;72.30;;;;;;5006570;28;20411;-73
2022/05/24 13:20:17;;;;;;;1.20;0.70;;;22.90;76.40;;;;;;5007821;28;21516;-75
2022/05/24 13:23:23;;;;;;;2.13;1.10;;;21.90;81.40;;;;;;5004910;28;20504;-72
2022/05/24 13:25:56;;;;;;;5.60;1.07;;;21.50;83.30;;;;;;5006378;28;20191;-74
2022/05/24 13:28:40;;;;;;;1.43;0.87;;;21.20;84.70;;;;;;5005374;28;20403;-74
2022/05/24 13:33:56;;;;;;;1.57;0.83;;;21.30;87.10;;;;;;5005276;28;21482;-73
2022/05/24 13:36:29;;;;;;;2.27;1.00;;;21.80;87.30;;;;;;5005146;28;20426;-72
2022/05/24 13:39:04;;;;;;;3.00;1.10;;;23.50;82.00;;;;;;5005703;28;20933;-73
2022/05/24 13:41:39;;;;;;;1.20;0.70;;;24.90;79.50;;;;;;5005851;28;20429;-72
2022/05/24 13:44:17;;;;;;;2.27;0.60;;;26.30;73.20;;;;;;5006305;28;20445;-73
2022/05/24 13:46:56;;;;;;;1.83;1.03;;;27.30;70.20;;;;;;5005981;28;20912;-73
2022/05/24 13:49:34;;;;;;;1.17;0.80;;;26.40;72.00;;;;;;5006208;28;20402;-71
2022/05/24 13:52:20;;;;;;;2.70;0.80;;;25.90;72.10;;;;;;5006249;28;21598;-74